createdAt,value
2023-01-02T00:09:50.544Z,17.98
2023-01-02T00:19:52.084Z,17.99
2023-01-02T00:29:53.473Z,17.98
2023-01-02T00:39:54.842Z,17.96
2023-01-02T00:49:56.223Z,17.96
2023-01-02T00:59:57.663Z,17.97
2023-01-02T01:09:59.040Z,17.97
2023-01-02T01:20:00.423Z,17.98
2023-01-02T01:30:02.117Z,17.99
2023-01-02T01:40:03.696Z,17.97
2023-01-02T01:50:10.760Z,18.01
2023-01-02T02:00:12.629Z,17.98
2023-01-02T02:10:14.158Z,17.99
2023-01-02T02:20:34.511Z,18.02
2023-01-02T02:30:43.231Z,18.00
2023-01-02T02:40:59.741Z,18.00
2023-01-02T02:51:04.373Z,18.00
2023-01-02T03:01:14.049Z,18.01
2023-01-02T03:11:15.563Z,17.99
2023-01-02T03:21:41.265Z,17.98
2023-01-02T03:31:43.317Z,17.92
2023-01-02T03:42:05.787Z,17.94
2023-01-02T03:52:07.205Z,17.98
2023-01-02T04:02:35.033Z,17.96
2023-01-02T04:12:36.973Z,17.96
2023-01-02T04:23:06.050Z,17.97
2023-01-02T04:33:08.761Z,17.94
2023-01-02T04:43:20.882Z,17.92
2023-01-02T04:53:22.276Z,17.93
2023-01-02T05:03:23.668Z,17.92
2023-01-02T05:13:25.066Z,17.91
2023-01-02T05:23:45.198Z,17.97
2023-01-02T05:33:51.517Z,18.14
2023-01-02T05:43:54.280Z,18.36
2023-01-02T05:53:55.722Z,18.60
2023-01-02T06:03:58.550Z,18.71
2023-01-02T06:14:00.048Z,18.78
2023-01-02T06:24:01.603Z,18.78
2023-01-02T06:34:03.818Z,18.79
2023-01-02T06:44:05.440Z,18.78
2023-01-02T06:54:06.996Z,18.79
2023-01-02T07:04:14.880Z,18.81
2023-01-02T07:14:16.266Z,18.77
2023-01-02T07:24:17.662Z,18.80
2023-01-02T07:34:19.145Z,18.84
2023-01-02T07:44:20.537Z,18.87
2023-01-02T07:54:21.921Z,18.88
2023-01-02T08:04:23.343Z,18.92
2023-01-02T08:14:24.758Z,18.91
2023-01-02T08:24:26.135Z,18.97
2023-01-02T08:34:27.555Z,18.93
2023-01-02T08:44:28.948Z,18.94
2023-01-02T08:54:30.710Z,18.95
2023-01-02T09:04:32.104Z,18.94
2023-01-02T09:14:33.482Z,18.97
2023-01-02T09:24:34.865Z,18.97
2023-01-02T09:34:36.330Z,19.00
2023-01-02T09:44:56.917Z,19.02
2023-01-02T09:54:58.301Z,19.04
2023-01-02T10:05:27.972Z,19.06
2023-01-02T10:15:29.213Z,19.04
2023-01-02T10:25:36.154Z,19.05
2023-01-02T10:35:44.636Z,19.05
2023-01-02T10:45:46.020Z,19.05
2023-01-02T10:55:47.590Z,19.07
2023-01-02T11:05:53.762Z,19.14
2023-01-02T11:16:01.660Z,19.17
2023-01-02T11:26:03.580Z,19.16
2023-01-02T11:36:04.826Z,19.18
2023-01-02T11:46:10.377Z,19.22
2023-01-02T11:56:30.579Z,19.22
2023-01-02T12:06:52.127Z,19.23
2023-01-02T12:17:21.370Z,19.26
2023-01-02T12:27:53.230Z,19.24
2023-01-02T12:37:56.163Z,19.24
2023-01-02T12:48:15.752Z,19.21
2023-01-02T12:58:29.549Z,19.17
2023-01-02T13:08:50.753Z,19.15
2023-01-02T13:19:07.077Z,19.08
2023-01-02T13:29:08.302Z,19.03
2023-01-02T13:39:25.781Z,19.00
2023-01-02T13:49:27.304Z,18.94
2023-01-02T13:59:42.765Z,18.88
2023-01-02T14:10:09.069Z,18.85
2023-01-02T14:20:21.947Z,18.82
2023-01-02T14:30:31.929Z,18.77
2023-01-02T14:40:41.279Z,18.72
2023-01-02T14:50:43.254Z,18.68
2023-01-02T15:00:45.388Z,18.64
2023-01-02T15:10:57.521Z,18.60
2023-01-02T15:21:09.591Z,18.55
2023-01-02T15:31:12.689Z,18.52
2023-01-02T15:41:17.866Z,18.47
2023-01-02T15:51:19.928Z,18.43
2023-01-02T16:01:44.706Z,18.38
2023-01-02T16:11:52.069Z,18.34
2023-01-02T16:21:59.887Z,18.30
2023-01-02T16:32:01.726Z,18.23
2023-01-02T16:42:21.952Z,18.22
2023-01-02T16:52:23.495Z,18.18
2023-01-02T17:02:24.921Z,18.17
2023-01-02T17:12:26.639Z,18.13
2023-01-02T17:22:28.289Z,18.14
2023-01-02T17:32:30.418Z,18.14
2023-01-02T17:42:31.952Z,18.09
2023-01-02T17:52:33.511Z,18.08
2023-01-02T18:02:35.093Z,18.05
2023-01-02T18:12:38.136Z,18.03
2023-01-02T18:22:46.070Z,18.02
2023-01-02T18:32:50.649Z,17.97
2023-01-02T18:42:55.178Z,17.98
2023-01-02T18:52:56.969Z,17.95
2023-01-02T19:03:07.524Z,17.90
2023-01-02T19:13:23.931Z,17.86
2023-01-02T19:23:29.134Z,17.85
2023-01-02T19:33:38.057Z,17.84
2023-01-02T19:43:39.445Z,17.80
2023-01-02T19:53:40.823Z,17.79
2023-01-02T20:03:42.362Z,17.76
2023-01-02T20:13:43.805Z,17.73
2023-01-02T20:23:45.329Z,17.71
2023-01-02T20:33:46.877Z,17.71
2023-01-02T20:43:48.441Z,17.67
2023-01-02T20:53:50.049Z,17.65
2023-01-02T21:03:51.539Z,17.65
2023-01-02T21:13:52.949Z,17.60
2023-01-02T21:23:54.372Z,17.58
2023-01-02T21:33:56.099Z,17.58
2023-01-02T21:43:57.608Z,17.51
2023-01-02T21:53:59.129Z,17.51
2023-01-02T22:04:00.583Z,17.51
2023-01-02T22:14:02.147Z,17.48
2023-01-02T22:24:03.656Z,17.46
2023-01-02T22:34:05.219Z,17.44
2023-01-02T22:44:11.119Z,17.46
2023-01-02T22:54:16.548Z,17.47
2023-01-02T23:04:19.915Z,17.42
2023-01-02T23:14:21.582Z,17.43
2023-01-02T23:24:29.302Z,17.40
2023-01-02T23:34:30.828Z,17.41
2023-01-02T23:44:32.246Z,17.40
2023-01-02T23:54:33.638Z,17.34
